ADDS METAR Data INFO
IDs: Format: Raw Decoded Include TAF

Data at: 1505 UTC 23 Oct 2017

KMMH 231455Z AUTO 36004KT 10SM CLR 02/M04 A3064 RMK AO2 T00221041
KMMH 231435Z AUTO 33003KT 10SM CLR M01/M06 A3064 RMK AO2 T10091057
KMMH 231415Z AUTO 01003KT 10SM CLR M02/M08 A3064 RMK AO2 T10211082
KMMH 231355Z AUTO 00000KT 10SM CLR M02/M08 A3063 RMK AO2 T10211083
KMMH 231335Z AUTO 00000KT 10SM CLR M01/M07 A3062 RMK AO2 T10061070
KMMH 231315Z AUTO 00000KT 10SM CLR 00/M07 A3062 RMK AO2 T00041071
KMMH 231255Z AUTO 00000KT 10SM CLR 02/M04 A3064 RMK AO2 T00231040
KMMH 231235Z AUTO 35004KT 10SM CLR 04/M03 A3062 RMK AO2 T00351033
KMMH 231215Z AUTO 35003KT 10SM CLR 04/M04 A3063 RMK AO2 T00361036
KMMH 231155Z AUTO 32003KT 10SM CLR 04/M04 A3063 RMK AO2 T00391043 10056 20014
KMMH 231135Z AUTO 34003KT 10SM CLR 02/M07 A3062 RMK AO2 T00211071
KMMH 231115Z AUTO 00000KT 10SM CLR 04/M06 A3062 RMK AO2 T00431058
KMMH 231055Z AUTO 32004KT 10SM CLR 04/M06 A3062 RMK AO2 T00431059
KMMH 231035Z AUTO 32005KT 10SM CLR 04/M07 A3063 RMK AO2 T00351070
KMMH 231020Z AUTO 00000KT 10SM CLR 04/M07 A3063 RMK AO2 T00381074
KMMH 230955Z AUTO 27008KT 10SM CLR 05/M09 A3063 RMK AO2 T00531087
KMMH 230935Z AUTO 33003KT 10SM CLR 04/M09 A3063 RMK AO2 T00381090
KMMH 230915Z AUTO 29004KT 10SM CLR 04/M09 A3063 RMK AO2 T00391090
KMMH 230855Z AUTO 00000KT 10SM CLR 05/M11 A3063 RMK AO2 T00511111
KMMH 230835Z AUTO 31003KT 10SM CLR 05/M10 A3063 RMK AO2 T00481104
KMMH 230815Z AUTO 30005KT 10SM CLR 05/M10 A3062 RMK AO2 T00461105
KMMH 230755Z AUTO 31003KT 10SM CLR 05/M11 A3062 RMK AO2 T00511108
KMMH 230735Z AUTO 00000KT 10SM CLR 04/M10 A3062 RMK AO2 T00421101
KMMH 230715Z AUTO 29006KT 10SM CLR 04/M10 A3062 RMK AO2 T00401104
KMMH 230655Z AUTO 33003KT 10SM CLR 04/M10 A3062 RMK AO2 T00421104
KMMH 230635Z AUTO 00000KT 10SM CLR 05/M10 A3061 RMK AO2 T00531101
KMMH 230615Z AUTO 33003KT 10SM CLR 06/M10 A3062 RMK AO2 T00551101
KMMH 230555Z AUTO 29005KT 10SM CLR 05/M10 A3061 RMK AO2 T00461104 10213 20040 402261063
KMMH 230535Z AUTO 00000KT 10SM CLR 04/M10 A3061 RMK AO2 T00441103
KMMH 230515Z AUTO 35003KT 10SM CLR 05/M10 A3061 RMK AO2 T00521101
KMMH 230455Z AUTO 02005KT 10SM CLR 06/M10 A3060 RMK AO2 T00601105
KMMH 230435Z AUTO 00000KT 10SM CLR 06/M10 A3059 RMK AO2 T00581100
KMMH 230415Z AUTO 00000KT 10SM CLR 07/M10 A3058 RMK AO2 T00671103
KMMH 230355Z AUTO 30004KT 10SM CLR 06/M10 A3058 RMK AO2 T00621104
KMMH 230335Z AUTO 00000KT 10SM CLR 07/M10 A3057 RMK AO2 T00651100
KMMH 230315Z AUTO 01003KT 10SM CLR 08/M10 A3057 RMK AO2 T00841101
KMMH 230255Z AUTO 00000KT 10SM CLR 09/M10 A3056 RMK AO2 T00911099
KMMH 230235Z AUTO 00000KT 10SM CLR 10/M11 A3056 RMK AO2 T00961108
KMMH 230215Z AUTO 26004KT 10SM CLR 11/M12 A3054 RMK AO2 T01051116
KMMH 230155Z AUTO 00000KT 10SM CLR 11/M14 A3054 RMK AO2 T01061144
KMMH 230135Z AUTO 32003KT 10SM CLR 12/M14 A3053 RMK AO2 T01241138
KMMH 230115Z AUTO 22004KT 10SM CLR 14/M14 A3052 RMK AO2 T01411139
KMMH 230055Z AUTO 30004KT 10SM CLR 17/M14 A3052 RMK AO2 T01701137
KMMH 230035Z AUTO 36009KT 10SM CLR 20/M13 A3051 RMK AO2 T01981135
KMMH 230015Z AUTO 25005KT 10SM CLR 21/M12 A3050 RMK AO2 T02071117
KMMH 222355Z AUTO 16003KT 10SM CLR 21/M13 A3050 RMK AO2 T02141133 10226 20141
KMMH 222335Z AUTO 15004KT 10SM CLR 22/M13 A3050 RMK AO2 T02171132
KMMH 222315Z AUTO 12005KT 10SM CLR 22/M13 A3050 RMK AO2 T02181132 PWINO
KMMH 222255Z AUTO 13005KT 10SM CLR 22/M13 A3050 RMK AO2 T02231128 PWINO
KMMH 222235Z AUTO 17003KT 10SM CLR 23/M13 A3050 RMK AO2 T02251130 PWINO
KMMH 222215Z AUTO 16005KT 10SM CLR 22/M13 A3050 RMK AO2 T02231128 PWINO
KMMH 222155Z AUTO 00000KT 10SM CLR 22/M13 A3050 RMK AO2 T02181128 PWINO
KMMH 222135Z AUTO 00000KT 10SM CLR 21/M13 A3050 RMK AO2 T02121127 PWINO
KMMH 222115Z AUTO 14003KT 10SM CLR 22/M13 A3050 RMK AO2 T02151126 PWINO
KMMH 222055Z AUTO 00000KT 10SM CLR 22/M12 A3051 RMK AO2 T02161122 PWINO
KMMH 222035Z AUTO 16005KT 10SM CLR 21/M11 A3051 RMK AO2 T02141111 PWINO
KMMH 222015Z AUTO 14003KT 10SM CLR 21/M10 A3052 RMK AO2 T02071098
KMMH 221955Z AUTO 15005KT 10SM CLR 21/M09 A3053 RMK AO2 T02101086
KMMH 221935Z AUTO 13004KT 10SM CLR 20/M07 A3054 RMK AO2 T01991075
KMMH 221915Z AUTO 12005KT 10SM CLR 19/M02 A3055 RMK AO2 T01931025
KMMH 221855Z AUTO 13004KT 10SM CLR 18/M03 A3055 RMK AO2 T01831029
KMMH 221835Z AUTO 12005KT 10SM CLR 17/M03 A3056 RMK AO2 T01731030
KMMH 221815Z AUTO 15003KT 10SM CLR 16/M04 A3055 RMK AO2 T01591044
KMMH 221755Z AUTO 13003KT 10SM CLR 14/M02 A3056 RMK AO2 T01391019 10139 21063
KMMH 221735Z AUTO 13004KT 10SM CLR 13/M02 A3055 RMK AO2 T01321016
KMMH 221715Z AUTO 00000KT 10SM CLR 12/M04 A3054 RMK AO2 T01221037
KMMH 221655Z AUTO 00000KT 10SM CLR 10/M04 A3054 RMK AO2 T01001045
KMMH 221635Z AUTO 00000KT 10SM CLR 07/M04 A3054 RMK AO2 T00741038
KMMH 221615Z AUTO 00000KT 10SM CLR 05/M03 A3054 RMK AO2 T00511031
KMMH 221555Z AUTO 00000KT 10SM CLR 03/M03 A3053 RMK AO2 T00321031
KMMH 221535Z AUTO 00000KT 10SM CLR 01/M03 A3053 RMK AO2 T00101035
KMMH 221515Z AUTO 01003KT 10SM CLR M01/M04 A3053 RMK AO2 T10071044
KMMH 221455Z AUTO 00000KT 10SM CLR M05/M07 A3053 RMK AO2 T10501070
KMMH 221435Z AUTO 35003KT 10SM CLR M05/M07 A3052 RMK AO2 T10551073
KMMH 221415Z AUTO 00000KT 10SM CLR M05/M07 A3051 RMK AO2 T10481069
KMMH 221355Z AUTO 35005KT 10SM CLR M04/M07 A3051 RMK AO2 T10431069
KMMH 221335Z AUTO 00000KT 10SM CLR M03/M05 A3050 RMK AO2 T10341054
KMMH 221315Z AUTO 00000KT 10SM CLR M04/M06 A3049 RMK AO2 T10411061
KMMH 221255Z AUTO 36004KT 10SM CLR M04/M06 A3049 RMK AO2 T10451063
KMMH 221235Z AUTO 00000KT 10SM CLR M03/M06 A3049 RMK AO2 T10351060
KMMH 221215Z AUTO 32003KT 10SM CLR M03/M06 A3048 RMK AO2 T10351059
KMMH 221155Z AUTO 00000KT 10SM CLR M03/M05 A3047 RMK AO2 T10291054 10024 21041
KMMH 221135Z AUTO 01005KT 10SM CLR M04/M06 A3046 RMK AO2 T10401060
KMMH 221115Z AUTO 33003KT 10SM CLR M04/M06 A3046 RMK AO2 T10361057
KMMH 221055Z AUTO 31003KT 10SM CLR M02/M04 A3046 RMK AO2 T10171041
KMMH 221035Z AUTO 00000KT 10SM CLR M02/M04 A3046 RMK AO2 T10201044
KMMH 221015Z AUTO 00000KT 10SM CLR M01/M04 A3046 RMK AO2 T10071038
KMMH 220955Z AUTO 33003KT 10SM CLR M01/M04 A3046 RMK AO2 T10061037
KMMH 220935Z AUTO 00000KT 10SM CLR M02/M04 A3045 RMK AO2 T10161045
KMMH 220915Z AUTO 00000KT 10SM CLR M01/M04 A3046 RMK AO2 T10091037
KMMH 220855Z AUTO 34003KT 10SM CLR M01/M04 A3046 RMK AO2 T10131043
KMMH 220835Z AUTO 36003KT 10SM CLR 00/M03 A3045 RMK AO2 T00011035
KMMH 220815Z AUTO 34003KT 10SM CLR 00/M03 A3046 RMK AO2 T00031028
KMMH 220755Z AUTO 00000KT 10SM CLR 01/M03 A3045 RMK AO2 T00051032
KMMH 220735Z AUTO 00000KT 10SM CLR 00/M04 A3045 RMK AO2 T00001036
KMMH 220715Z AUTO 00000KT 10SM CLR 01/M03 A3045 RMK AO2 T00111028
KMMH 220655Z AUTO 00000KT 10SM CLR 00/M04 A3044 RMK AO2 T00011037
KMMH 220635Z AUTO 02003KT 10SM CLR 02/M03 A3044 RMK AO2 T00171030
KMMH 220615Z AUTO 00000KT 10SM CLR 01/M03 A3044 RMK AO2 T00131026
KMMH 220555Z AUTO 35003KT 10SM CLR 03/M03 A3044 RMK AO2 T00251026 10163 20023 401781078
KMMH 220535Z AUTO 00000KT 10SM CLR 03/M03 A3044 RMK AO2 T00251026
KMMH 220515Z AUTO 00000KT 10SM CLR 03/M03 A3043 RMK AO2 T00281026
KMMH 220455Z AUTO 00000KT 10SM CLR 04/M02 A3043 RMK AO2 T00361020
KMMH 220435Z AUTO 25004KT 10SM CLR 04/M03 A3041 RMK AO2 T00361026
KMMH 220415Z AUTO 36003KT 10SM CLR 04/M02 A3041 RMK AO2 T00421017
KMMH 220355Z AUTO 00000KT 10SM CLR 05/M02 A3040 RMK AO2 T00501016
KMMH 220335Z AUTO 00000KT 10SM CLR 05/M02 A3038 RMK AO2 T00531016
KMMH 220315Z AUTO 00000KT 10SM CLR 05/M03 A3038 RMK AO2 T00521033